Aérodrome :
LOGIN :

S'inscrire | Disclaimer

   EN    FR    IT 

 










Légende :    VFR   VFR Marginal   IFR   IFR Intensif   IFR Très Intensif
Visi : 
Plafond : 
>= 8 km
>= 3000ft
5 à 8 km
1000 à 3000 ft
1500m à 5 km
500 à 1000 ft
800 à 1500m
200 à 500 ft
< 800m
< 200 ft
Symboles :   Orages  Brouillard  Fortes neiges  Fortes précipitations  Vent > 20 kt
SIGMETs :   Divers  Orages  Givrage  Turbulence  Onde Orograph.  Cendres Volcan.







- Altitude de l'aérodrome : 1416 ft
- Code IATA : ZRH


LSZH - Zurich

DERNIER METAR :
  • 181720Z 05006KT CAVOK 16/06 Q1022 NOSIG

METARs EXPIRÉS :
  • 181650Z 06008KT 9999 FEW049 17/06 Q1022 NOSIG
  • 181620Z 05007KT 020V100 9999 FEW049 17/06 Q1022 NOSIG
  • 181550Z 05008KT 020V100 9999 FEW050 18/07 Q1022 NOSIG
  • 181520Z 06008KT 030V090 9999 FEW049 18/07 Q1022 NOSIG
  • 181450Z 04011KT 9999 FEW048 18/07 Q1022 NOSIG

TAF TAF LSZH
Valide du 18 à 15h jusqu'au 19 à 21h UTC


181425Z 1815/1921 06007KT 9999 FEW040 TX19/1815Z TN06/1905Z TX18/1914Z
PROB40
TEMPO 1815/1817 06012KT
BECMG 1815/1817 CAVOK
BECMG 1822/1824 VRB03KT
BECMG 1907/1910 05008KT
PROB40
TEMPO 1911/1916 05013G25KT
ATIS : +41 43 816 2295 (DEP) +41 43 816 2294 (ARR)
Pas de NOTAMs connus pour ce terrain.



MET'MAP, la Météo Aéronautique d'un coup d'oeil ! - Copyright ORBIFLY Décembre 2007 - Disclaimer

ORBIFLY MET'MAP TEAM :

Programmation & Développement : Alexandra Zaïnal
Conception & Développement : Baudouin d'Aumeries
Co-Programmation & Développement : Marc-Olivier Méhu
Soutien technique & logistique : Manuel Goepfert

Contact : metmap@orbifly.com




SOURCES & CREDITS :

   NOAA